Time,TemperatureF,DewpointF,PressureIn,WindDirection,WindDirectionDegrees,WindSpeedMPH,WindSpeedGustMPH,Humidity,HourlyPrecipIn,Conditions,Clouds,dailyrainin,SoftwareType,DateUTC
2014-01-20 00:03:00,28.9,24.0,29.58,SW,233,3.0,12.0,82,0.00,,,0.00,weatherlink.com 1.10,2014-01-20 05:03:00,
2014-01-20 00:18:00,29.2,24.0,29.58,SW,222,4.0,14.0,82,0.00,,,0.00,weatherlink.com 1.10,2014-01-20 05:18:00,
2014-01-20 00:33:00,29.6,25.0,29.57,SSW,199,6.0,21.0,82,0.00,,,0.00,weatherlink.com 1.10,2014-01-20 05:33:00,
2014-01-20 00:48:00,29.9,25.0,29.56,West,267,6.0,14.0,81,0.00,,,0.00,weatherlink.com 1.10,2014-01-20 05:48:00,
2014-01-20 01:03:00,30.2,25.0,29.57,SW,233,6.0,15.0,81,0.00,,,0.00,weatherlink.com 1.10,2014-01-20 06:03:00,
2014-01-20 01:18:00,30.5,25.0,29.56,West,262,8.0,10.0,81,0.00,,,0.00,weatherlink.com 1.10,2014-01-20 06:18:00,
2014-01-20 01:33:00,30.7,25.0,29.56,West,277,4.0,15.0,80,0.00,,,0.00,weatherlink.com 1.10,2014-01-20 06:33:00,
2014-01-20 01:48:00,30.9,25.0,29.56,WSW,255,7.0,10.0,80,0.00,,,0.00,weatherlink.com 1.10,2014-01-20 06:48:00,
2014-01-20 02:03:00,31.1,26.0,29.56,SSW,197,6.0,11.0,80,0.00,,,0.00,weatherlink.com 1.10,2014-01-20 07:03:00,
2014-01-20 02:18:00,31.3,26.0,29.56,WSW,256,3.0,11.0,81,0.00,,,0.00,weatherlink.com 1.10,2014-01-20 07:18:00,
2014-01-20 02:33:00,31.5,26.0,29.57,SW,234,5.0,9.0,81,0.00,,,0.00,weatherlink.com 1.10,2014-01-20 07:33:00,
2014-01-20 02:48:00,31.8,26.0,29.57,West,263,4.0,10.0,80,0.00,,,0.00,weatherlink.com 1.10,2014-01-20 07:48:00,
2014-01-20 03:03:00,32.0,27.0,29.58,WSW,245,3.0,11.0,81,0.00,,,0.00,weatherlink.com 1.10,2014-01-20 08:03:00,
2014-01-20 03:18:00,32.1,27.0,29.58,West,278,2.0,8.0,80,0.00,,,0.00,weatherlink.com 1.10,2014-01-20 08:18:00,
2014-01-20 03:33:00,32.0,27.0,29.59,SW,224,5.0,9.0,81,0.00,,,0.00,weatherlink.com 1.10,2014-01-20 08:33:00,
2014-01-20 03:48:00,31.9,27.0,29.60,WSW,242,5.0,10.0,81,0.00,,,0.00,weatherlink.com 1.10,2014-01-20 08:48:00,
2014-01-20 04:03:00,31.9,27.0,29.61,West,261,3.0,8.0,82,0.00,,,0.00,weatherlink.com 1.10,2014-01-20 09:03:00,
2014-01-20 04:18:00,32.0,27.0,29.62,West,263,4.0,8.0,82,0.00,,,0.00,weatherlink.com 1.10,2014-01-20 09:18:00,
2014-01-20 04:33:00,32.1,28.0,29.62,West,265,1.0,9.0,83,0.00,,,0.00,weatherlink.com 1.10,2014-01-20 09:33:00,
2014-01-20 04:49:00,32.1,28.0,29.63,WSW,253,4.0,5.0,84,0.00,,,0.00,weatherlink.com 1.10,2014-01-20 09:49:00,
2014-01-20 05:04:00,31.9,28.0,29.64,WNW,296,1.0,3.0,85,0.00,,,0.00,weatherlink.com 1.10,2014-01-20 10:04:00,
2014-01-20 05:19:00,31.7,28.0,29.64,WNW,282,2.0,4.0,85,0.00,,,0.00,weatherlink.com 1.10,2014-01-20 10:19:00,
2014-01-20 05:34:00,31.7,28.0,29.65,WSW,258,1.0,2.0,86,0.00,,,0.00,weatherlink.com 1.10,2014-01-20 10:34:00,
2014-01-20 05:49:00,31.7,28.0,29.66,West,281,0.0,3.0,86,0.00,,,0.00,weatherlink.com 1.10,2014-01-20 10:49:00,
2014-01-20 06:04:00,31.5,28.0,29.67,WNW,291,0.0,2.0,86,0.00,,,0.00,weatherlink.com 1.10,2014-01-20 11:04:00,
2014-01-20 06:19:00,31.5,28.0,29.68,West,269,1.0,3.0,87,0.00,,,0.00,weatherlink.com 1.10,2014-01-20 11:19:00,
2014-01-20 06:34:00,31.5,28.0,29.69,NNW,346,2.0,4.0,88,0.00,,,0.00,weatherlink.com 1.10,2014-01-20 11:34:00,
2014-01-20 06:49:00,31.5,29.0,29.70,NNW,327,1.0,3.0,89,0.00,,,0.00,weatherlink.com 1.10,2014-01-20 11:49:00,
2014-01-20 07:04:00,31.3,29.0,29.71,NW,321,1.0,3.0,89,0.00,,,0.00,weatherlink.com 1.10,2014-01-20 12:04:00,
2014-01-20 07:34:00,31.2,28.0,29.72,NNW,336,2.0,5.0,89,0.00,,,0.00,weatherlink.com 1.10,2014-01-20 12:34:00,
2014-01-20 07:49:00,31.1,28.0,29.73,NNW,334,4.0,10.0,89,0.00,,,0.00,weatherlink.com 1.10,2014-01-20 12:49:00,
2014-01-20 07:53:00,25.9,20.0,29.87,West,265,6.0,11.0,78,0.00,,,0.00,weatherlink.com 1.10,2014-01-20 12:53:00,
2014-01-20 08:06:00,26.3,20.0,29.88,NNW,333,1.0,6.0,77,0.00,,,0.00,weatherlink.com 1.10,2014-01-20 13:06:00,
2014-01-20 08:21:00,27.6,20.0,29.88,NW,314,3.0,5.0,74,0.00,,,0.00,weatherlink.com 1.10,2014-01-20 13:21:00,
2014-01-20 08:39:00,27.6,20.0,29.88,NW,326,1.0,4.0,73,0.00,,,0.00,weatherlink.com 1.10,2014-01-20 13:39:00,
2014-01-20 08:51:00,27.5,20.0,29.88,WNW,293,2.0,6.0,72,0.00,,,0.00,weatherlink.com 1.10,2014-01-20 13:51:00,
2014-01-20 09:06:00,27.5,20.0,29.88,NNW,342,2.0,6.0,72,0.00,,,0.00,weatherlink.com 1.10,2014-01-20 14:06:00,
2014-01-20 09:21:00,27.3,20.0,29.89,NNW,344,1.0,6.0,73,0.00,,,0.00,weatherlink.com 1.10,2014-01-20 14:21:00,
2014-01-20 09:36:00,27.3,20.0,29.89,NNW,347,2.0,4.0,74,0.00,,,0.00,weatherlink.com 1.10,2014-01-20 14:36:00,
2014-01-20 09:51:00,27.3,20.0,29.90,NNW,341,1.0,4.0,73,0.00,,,0.00,weatherlink.com 1.10,2014-01-20 14:51:00,
2014-01-20 11:06:00,27.9,20.0,29.91,NNW,340,1.0,3.0,71,0.00,,,0.00,weatherlink.com 1.10,2014-01-20 16:06:00,
2014-01-20 11:21:00,27.8,20.0,29.91,North,349,2.0,5.0,71,0.00,,,0.00,weatherlink.com 1.10,2014-01-20 16:21:00,
2014-01-20 12:06:00,26.8,19.0,29.93,NNE,16,3.0,4.0,72,0.00,,,0.00,weatherlink.com 1.10,2014-01-20 17:06:00,
2014-01-20 12:36:00,26.5,19.0,29.94,North,5,2.0,3.0,72,0.00,,,0.00,weatherlink.com 1.10,2014-01-20 17:36:00,
2014-01-20 13:36:00,25.5,18.0,29.95,NNE,17,3.0,5.0,73,0.00,,,0.00,weatherlink.com 1.10,2014-01-20 18:36:00,
2014-01-20 14:20:00,27.6,20.0,29.90,NNW,342,1.0,4.0,74,0.00,,,0.00,weatherlink.com 1.10,2014-01-20 19:20:00,
2014-01-20 14:35:00,27.9,20.0,29.89,NNW,328,1.0,5.0,72,0.00,,,0.00,weatherlink.com 1.10,2014-01-20 19:35:00,
2014-01-20 14:36:00,24.4,18.0,29.98,ENE,78,2.0,6.0,77,0.00,,,0.00,weatherlink.com 1.10,2014-01-20 19:36:00,
2014-01-20 14:50:00,28.4,20.0,29.89,WSW,246,2.0,5.0,71,0.00,,,0.00,weatherlink.com 1.10,2014-01-20 19:50:00,
2014-01-20 15:05:00,28.1,19.0,29.90,NW,318,1.0,5.0,70,0.00,,,0.00,weatherlink.com 1.10,2014-01-20 20:05:00,
2014-01-20 15:21:00,23.2,19.0,30.01,ENE,67,3.0,7.0,83,0.00,,,0.00,weatherlink.com 1.10,2014-01-20 20:21:00,
2014-01-20 15:50:00,27.6,20.0,29.91,North,360,2.0,4.0,72,0.00,,,0.00,weatherlink.com 1.10,2014-01-20 20:50:00,
2014-01-20 16:06:00,26.9,19.0,29.93,NNW,342,3.0,5.0,72,0.00,,,0.00,weatherlink.com 1.10,2014-01-20 21:06:00,
2014-01-20 16:36:00,26.6,19.0,29.93,NNW,344,3.0,4.0,72,0.00,,,0.00,weatherlink.com 1.10,2014-01-20 21:36:00,
2014-01-20 17:06:00,26.3,19.0,29.94,North,360,1.0,3.0,73,0.00,,,0.00,weatherlink.com 1.10,2014-01-20 22:06:00,
2014-01-20 17:21:00,26.2,19.0,29.95,North,5,2.0,4.0,73,0.00,,,0.00,weatherlink.com 1.10,2014-01-20 22:21:00,
2014-01-20 17:36:00,25.9,18.0,29.95,NNE,32,4.0,5.0,73,0.00,,,0.00,weatherlink.com 1.10,2014-01-20 22:36:00,
2014-01-20 18:06:00,25.4,19.0,29.96,NNE,30,2.0,5.0,75,0.00,,,0.00,weatherlink.com 1.10,2014-01-20 23:06:00,
2014-01-20 18:21:00,25.2,19.0,29.97,NNE,29,4.0,5.0,76,0.00,,,0.00,weatherlink.com 1.10,2014-01-20 23:21:00,
2014-01-20 18:36:00,24.8,19.0,29.98,ENE,61,1.0,5.0,77,0.00,,,0.00,weatherlink.com 1.10,2014-01-20 23:36:00,
2014-01-20 19:06:00,24.0,18.0,30.00,NE,51,2.0,6.0,79,0.00,,,0.00,weatherlink.com 1.10,2014-01-21 00:06:00,
2014-01-20 19:21:00,23.6,19.0,30.00,ENE,71,2.0,5.0,81,0.00,,,0.00,weatherlink.com 1.10,2014-01-21 00:21:00,
2014-01-20 19:51:00,22.7,19.0,30.02,East,94,3.0,7.0,86,0.00,,,0.00,weatherlink.com 1.10,2014-01-21 00:51:00,
2014-01-20 20:06:00,19.7,16.0,30.02,ESE,118,8.0,13.0,85,0.00,,,0.00,weatherlink.com 1.10,2014-01-21 01:06:00,
2014-01-20 20:36:00,17.6,14.0,30.03,ENE,57,6.0,18.0,87,0.00,,,0.00,weatherlink.com 1.10,2014-01-21 01:36:00,
2014-01-20 20:51:00,17.1,14.0,30.03,ENE,74,8.0,15.0,88,0.00,,,0.00,weatherlink.com 1.10,2014-01-21 01:51:00,
2014-01-20 21:06:00,16.7,14.0,30.04,NE,40,5.0,12.0,88,0.00,,,0.00,weatherlink.com 1.10,2014-01-21 02:06:00,
2014-01-20 21:21:00,16.6,14.0,30.04,ENE,59,5.0,9.0,89,0.00,,,0.00,weatherlink.com 1.10,2014-01-21 02:21:00,
2014-01-20 21:36:00,16.5,14.0,30.05,NE,56,4.0,11.0,89,0.00,,,0.00,weatherlink.com 1.10,2014-01-21 02:36:00,
2014-01-20 21:52:00,16.0,13.0,30.05,ENE,75,3.0,12.0,88,0.00,,,0.00,weatherlink.com 1.10,2014-01-21 02:52:00,
2014-01-20 22:06:00,15.6,13.0,30.06,NNE,26,0.0,10.0,89,0.00,,,0.00,weatherlink.com 1.10,2014-01-21 03:06:00,
2014-01-20 22:22:00,15.3,12.0,30.06,ENE,61,2.0,9.0,88,0.00,,,0.00,weatherlink.com 1.10,2014-01-21 03:22:00,
2014-01-20 22:37:00,15.2,13.0,30.07,NNE,29,4.0,6.0,89,0.00,,,0.00,weatherlink.com 1.10,2014-01-21 03:37:00,
2014-01-20 22:52:00,14.6,11.0,30.07,ENE,66,8.0,14.0,87,0.00,,,0.00,weatherlink.com 1.10,2014-01-21 03:52:00,
2014-01-20 23:07:00,13.9,11.0,30.07,East,82,5.0,14.0,86,0.00,,,0.00,weatherlink.com 1.10,2014-01-21 04:07:00,
2014-01-20 23:22:00,13.7,11.0,30.07,NE,36,3.0,12.0,87,0.00,,,0.00,weatherlink.com 1.10,2014-01-21 04:22:00,
2014-01-20 23:37:00,13.6,11.0,30.08,ENE,74,3.0,10.0,87,0.00,,,0.00,weatherlink.com 1.10,2014-01-21 04:37:00,
2014-01-20 23:52:00,13.4,10.0,30.07,NE,43,3.0,9.0,87,0.00,,,0.00,weatherlink.com 1.10,2014-01-21 04:52:00,